sensor_id;sensor_type;location;lat;lon;timestamp;pressure;altitude;pressure_sealevel;temperature;humidity
81658;BME280;71057;51.436;6.768;2024-02-14T00:02:16;101180.34;;;8.37;100.00
81658;BME280;71057;51.436;6.768;2024-02-14T00:04:41;101187.66;;;8.15;100.00
81658;BME280;71057;51.436;6.768;2024-02-14T00:07:06;101181.00;;;7.97;100.00
81658;BME280;71057;51.436;6.768;2024-02-14T00:09:31;101182.19;;;7.88;100.00
81658;BME280;71057;51.436;6.768;2024-02-14T00:11:57;101179.88;;;7.85;100.00
81658;BME280;71057;51.436;6.768;2024-02-14T00:14:22;101184.22;;;7.80;100.00
81658;BME280;71057;51.436;6.768;2024-02-14T00:16:47;101165.16;;;7.68;100.00
81658;BME280;71057;51.436;6.768;2024-02-14T00:19:13;101168.06;;;7.73;100.00
81658;BME280;71057;51.436;6.768;2024-02-14T00:21:39;101173.28;;;7.81;100.00
81658;BME280;71057;51.436;6.768;2024-02-14T00:24:04;101177.78;;;7.74;100.00
81658;BME280;71057;51.436;6.768;2024-02-14T00:26:30;101173.59;;;7.65;100.00
81658;BME280;71057;51.436;6.768;2024-02-14T00:28:55;101187.03;;;7.65;100.00
81658;BME280;71057;51.436;6.768;2024-02-14T00:31:21;101171.97;;;7.70;100.00
81658;BME280;71057;51.436;6.768;2024-02-14T00:33:46;101183.09;;;7.67;100.00
81658;BME280;71057;51.436;6.768;2024-02-14T00:36:11;101183.16;;;7.74;100.00
81658;BME280;71057;51.436;6.768;2024-02-14T00:38:37;101179.69;;;7.80;100.00
81658;BME280;71057;51.436;6.768;2024-02-14T00:41:02;101182.53;;;7.72;100.00
81658;BME280;71057;51.436;6.768;2024-02-14T00:43:28;101173.22;;;7.68;100.00
81658;BME280;71057;51.436;6.768;2024-02-14T00:45:53;101179.78;;;7.65;100.00
81658;BME280;71057;51.436;6.768;2024-02-14T00:48:19;101174.63;;;7.64;100.00
81658;BME280;71057;51.436;6.768;2024-02-14T00:50:44;101165.09;;;7.61;100.00
81658;BME280;71057;51.436;6.768;2024-02-14T00:53:10;101180.25;;;7.69;100.00
81658;BME280;71057;51.436;6.768;2024-02-14T00:55:35;101182.13;;;7.75;100.00
81658;BME280;71057;51.436;6.768;2024-02-14T00:58:00;101171.78;;;7.72;100.00
81658;BME280;71057;51.436;6.768;2024-02-14T01:00:25;101159.94;;;7.66;100.00
81658;BME280;71057;51.436;6.768;2024-02-14T01:02:51;101161.44;;;7.69;100.00
81658;BME280;71057;51.436;6.768;2024-02-14T01:05:16;101169.66;;;7.67;100.00
81658;BME280;71057;51.436;6.768;2024-02-14T01:07:42;101144.88;;;7.65;100.00
81658;BME280;71057;51.436;6.768;2024-02-14T01:10:07;101146.72;;;7.65;100.00
81658;BME280;71057;51.436;6.768;2024-02-14T01:12:33;101142.81;;;7.67;100.00
81658;BME280;71057;51.436;6.768;2024-02-14T01:14:58;101146.16;;;7.69;100.00
81658;BME280;71057;51.436;6.768;2024-02-14T01:17:23;101137.88;;;7.71;100.00
81658;BME280;71057;51.436;6.768;2024-02-14T01:19:49;101141.81;;;7.75;100.00
81658;BME280;71057;51.436;6.768;2024-02-14T01:22:15;101139.13;;;7.75;100.00
81658;BME280;71057;51.436;6.768;2024-02-14T01:24:43;101134.78;;;7.74;100.00
81658;BME280;71057;51.436;6.768;2024-02-14T01:27:09;101130.91;;;7.83;100.00
81658;BME280;71057;51.436;6.768;2024-02-14T01:29:34;101130.50;;;7.86;100.00
81658;BME280;71057;51.436;6.768;2024-02-14T01:31:59;101131.34;;;7.87;100.00
81658;BME280;71057;51.436;6.768;2024-02-14T01:34:25;101135.06;;;7.92;100.00
81658;BME280;71057;51.436;6.768;2024-02-14T01:36:50;101124.31;;;7.92;100.00
81658;BME280;71057;51.436;6.768;2024-02-14T01:39:15;101140.44;;;7.92;100.00
81658;BME280;71057;51.436;6.768;2024-02-14T01:41:46;101135.31;;;8.04;100.00
81658;BME280;71057;51.436;6.768;2024-02-14T01:44:15;101133.28;;;8.06;100.00
81658;BME280;71057;51.436;6.768;2024-02-14T01:46:42;101121.50;;;8.07;100.00
81658;BME280;71057;51.436;6.768;2024-02-14T01:49:08;101125.19;;;7.99;100.00
81658;BME280;71057;51.436;6.768;2024-02-14T01:51:35;101130.59;;;8.06;100.00
81658;BME280;71057;51.436;6.768;2024-02-14T01:54:02;101130.59;;;8.13;100.00
81658;BME280;71057;51.436;6.768;2024-02-14T01:56:28;101124.38;;;8.06;100.00
81658;BME280;71057;51.436;6.768;2024-02-14T01:58:54;101122.53;;;8.13;100.00
81658;BME280;71057;51.436;6.768;2024-02-14T02:01:19;101124.41;;;8.19;100.00
81658;BME280;71057;51.436;6.768;2024-02-14T02:03:45;101114.91;;;8.16;100.00
81658;BME280;71057;51.436;6.768;2024-02-14T02:16:16;101124.22;;;8.27;100.00
81658;BME280;71057;51.436;6.768;2024-02-14T02:18:44;101117.88;;;8.41;100.00
81658;BME280;71057;51.436;6.768;2024-02-14T02:21:09;101121.59;;;8.40;100.00
81658;BME280;71057;51.436;6.768;2024-02-14T02:23:34;101137.53;;;8.48;100.00
81658;BME280;71057;51.436;6.768;2024-02-14T02:26:00;101133.63;;;8.57;100.00
81658;BME280;71057;51.436;6.768;2024-02-14T02:28:25;101126.16;;;8.59;100.00
81658;BME280;71057;51.436;6.768;2024-02-14T02:30:50;101114.16;;;8.62;100.00
81658;BME280;71057;51.436;6.768;2024-02-14T02:33:18;101123.69;;;8.71;100.00
81658;BME280;71057;51.436;6.768;2024-02-14T02:35:44;101120.59;;;8.74;100.00
81658;BME280;71057;51.436;6.768;2024-02-14T02:38:10;101116.25;;;8.80;100.00
81658;BME280;71057;51.436;6.768;2024-02-14T02:40:36;101109.00;;;8.87;100.00
81658;BME280;71057;51.436;6.768;2024-02-14T02:43:02;101112.34;;;8.82;100.00
81658;BME280;71057;51.436;6.768;2024-02-14T02:45:28;101111.69;;;8.87;100.00
81658;BME280;71057;51.436;6.768;2024-02-14T02:47:53;101117.47;;;8.91;100.00
81658;BME280;71057;51.436;6.768;2024-02-14T02:50:20;101116.06;;;9.01;100.00
81658;BME280;71057;51.436;6.768;2024-02-14T02:52:47;101121.19;;;9.09;100.00
81658;BME280;71057;51.436;6.768;2024-02-14T02:55:12;101102.34;;;9.09;100.00
81658;BME280;71057;51.436;6.768;2024-02-14T02:57:37;101112.50;;;9.07;100.00
81658;BME280;71057;51.436;6.768;2024-02-14T03:00:06;101125.16;;;9.13;100.00
81658;BME280;71057;51.436;6.768;2024-02-14T03:02:32;101112.06;;;9.24;100.00
81658;BME280;71057;51.436;6.768;2024-02-14T03:04:59;101114.16;;;9.22;100.00
81658;BME280;71057;51.436;6.768;2024-02-14T03:07:25;101116.63;;;9.30;100.00
81658;BME280;71057;51.436;6.768;2024-02-14T03:09:50;101119.31;;;9.30;100.00
81658;BME280;71057;51.436;6.768;2024-02-14T03:12:16;101116.41;;;9.31;100.00
81658;BME280;71057;51.436;6.768;2024-02-14T03:14:43;101114.34;;;9.33;100.00
81658;BME280;71057;51.436;6.768;2024-02-14T03:17:09;101109.16;;;9.32;100.00
81658;BME280;71057;51.436;6.768;2024-02-14T03:19:35;101109.16;;;9.32;100.00
81658;BME280;71057;51.436;6.768;2024-02-14T03:22:04;101103.16;;;9.23;100.00
81658;BME280;71057;51.436;6.768;2024-02-14T03:24:34;101115.81;;;9.23;100.00
81658;BME280;71057;51.436;6.768;2024-02-14T03:27:00;101105.22;;;9.28;100.00
81658;BME280;71057;51.436;6.768;2024-02-14T03:29:25;101110.81;;;9.26;100.00
81658;BME280;71057;51.436;6.768;2024-02-14T03:31:52;101110.22;;;9.18;100.00
81658;BME280;71057;51.436;6.768;2024-02-14T03:34:17;101103.78;;;9.19;100.00
81658;BME280;71057;51.436;6.768;2024-02-14T03:36:44;101105.88;;;9.16;100.00
81658;BME280;71057;51.436;6.768;2024-02-14T03:39:10;101127.00;;;9.13;100.00
81658;BME280;71057;51.436;6.768;2024-02-14T03:41:35;101110.44;;;9.16;100.00
81658;BME280;71057;51.436;6.768;2024-02-14T03:44:02;101103.38;;;9.08;100.00
81658;BME280;71057;51.436;6.768;2024-02-14T03:46:29;101101.94;;;9.12;100.00
81658;BME280;71057;51.436;6.768;2024-02-14T03:52:40;101100.28;;;9.11;100.00
81658;BME280;71057;51.436;6.768;2024-02-14T03:55:07;101113.34;;;9.21;100.00
81658;BME280;71057;51.436;6.768;2024-02-14T03:57:34;101111.88;;;9.19;100.00
81658;BME280;71057;51.436;6.768;2024-02-14T04:00:04;101111.47;;;9.08;100.00
81658;BME280;71057;51.436;6.768;2024-02-14T04:02:32;101116.44;;;9.11;100.00
81658;BME280;71057;51.436;6.768;2024-02-14T04:04:58;101102.13;;;9.18;100.00
81658;BME280;71057;51.436;6.768;2024-02-14T04:07:23;101107.13;;;9.21;100.00
81658;BME280;71057;51.436;6.768;2024-02-14T04:09:49;101108.75;;;9.28;100.00
81658;BME280;71057;51.436;6.768;2024-02-14T04:12:14;101113.28;;;9.34;100.00
81658;BME280;71057;51.436;6.768;2024-02-14T04:14:40;101107.91;;;9.28;100.00
81658;BME280;71057;51.436;6.768;2024-02-14T04:17:05;101117.69;;;9.29;100.00
81658;BME280;71057;51.436;6.768;2024-02-14T04:19:36;101109.59;;;9.29;100.00
81658;BME280;71057;51.436;6.768;2024-02-14T04:22:01;101112.06;;;9.24;100.00
81658;BME280;71057;51.436;6.768;2024-02-14T04:24:27;101116.00;;;9.28;100.00
81658;BME280;71057;51.436;6.768;2024-02-14T04:26:55;101108.94;;;9.40;100.00
81658;BME280;71057;51.436;6.768;2024-02-14T04:29:22;101119.50;;;9.35;100.00
81658;BME280;71057;51.436;6.768;2024-02-14T04:31:48;101126.97;;;9.39;100.00
81658;BME280;71057;51.436;6.768;2024-02-14T04:34:14;101126.16;;;9.39;100.00
81658;BME280;71057;51.436;6.768;2024-02-14T04:36:39;101123.84;;;9.42;100.00
81658;BME280;71057;51.436;6.768;2024-02-14T04:39:05;101126.31;;;9.44;100.00
81658;BME280;71057;51.436;6.768;2024-02-14T04:41:30;101137.31;;;9.36;100.00
81658;BME280;71057;51.436;6.768;2024-02-14T04:43:56;101131.31;;;9.40;100.00
81658;BME280;71057;51.436;6.768;2024-02-14T04:46:21;101128.19;;;9.43;100.00
81658;BME280;71057;51.436;6.768;2024-02-14T04:48:47;101141.06;;;9.41;100.00
81658;BME280;71057;51.436;6.768;2024-02-14T04:51:13;101133.59;;;9.43;100.00
81658;BME280;71057;51.436;6.768;2024-02-14T04:53:38;101135.66;;;9.48;100.00
81658;BME280;71057;51.436;6.768;2024-02-14T04:56:04;101150.16;;;9.47;100.00
81658;BME280;71057;51.436;6.768;2024-02-14T04:58:29;101143.75;;;9.48;100.00
81658;BME280;71057;51.436;6.768;2024-02-14T05:00:54;101143.75;;;9.41;100.00
81658;BME280;71057;51.436;6.768;2024-02-14T05:03:22;101154.31;;;9.43;100.00
81658;BME280;71057;51.436;6.768;2024-02-14T05:05:49;101163.00;;;9.52;100.00
81658;BME280;71057;51.436;6.768;2024-02-14T05:08:14;101148.50;;;9.46;100.00
81658;BME280;71057;51.436;6.768;2024-02-14T05:10:41;101154.91;;;9.52;100.00
81658;BME280;71057;51.436;6.768;2024-02-14T05:13:06;101157.41;;;9.53;100.00
81658;BME280;71057;51.436;6.768;2024-02-14T05:15:31;101158.00;;;9.55;100.00
81658;BME280;71057;51.436;6.768;2024-02-14T05:17:56;101158.44;;;9.45;100.00
81658;BME280;71057;51.436;6.768;2024-02-14T05:20:22;101161.75;;;9.54;100.00
81658;BME280;71057;51.436;6.768;2024-02-14T05:22:47;101162.19;;;9.38;100.00
81658;BME280;71057;51.436;6.768;2024-02-14T05:25:12;101174.81;;;9.37;100.00
81658;BME280;71057;51.436;6.768;2024-02-14T05:27:38;101175.03;;;9.36;100.00
81658;BME280;71057;51.436;6.768;2024-02-14T05:30:04;101186.25;;;9.33;100.00
81658;BME280;71057;51.436;6.768;2024-02-14T05:32:31;101175.84;;;9.36;100.00
81658;BME280;71057;51.436;6.768;2024-02-14T05:34:57;101185.16;;;9.47;100.00
81658;BME280;71057;51.436;6.768;2024-02-14T05:37:22;101179.38;;;9.37;100.00
81658;BME280;71057;51.436;6.768;2024-02-14T05:39:47;101177.50;;;9.44;100.00
81658;BME280;71057;51.436;6.768;2024-02-14T05:42:13;101172.13;;;9.44;100.00
81658;BME280;71057;51.436;6.768;2024-02-14T05:44:38;101176.69;;;9.50;100.00
81658;BME280;71057;51.436;6.768;2024-02-14T05:47:05;101176.25;;;9.47;100.00
81658;BME280;71057;51.436;6.768;2024-02-14T05:49:30;101187.25;;;9.45;100.00
81658;BME280;71057;51.436;6.768;2024-02-14T05:51:56;101186.84;;;9.48;100.00
81658;BME280;71057;51.436;6.768;2024-02-14T05:54:21;101172.94;;;9.51;100.00
81658;BME280;71057;51.436;6.768;2024-02-14T05:56:46;101191.59;;;9.46;100.00
81658;BME280;71057;51.436;6.768;2024-02-14T05:59:12;101181.25;;;9.43;100.00
81658;BME280;71057;51.436;6.768;2024-02-14T06:01:37;101183.50;;;9.46;100.00
81658;BME280;71057;51.436;6.768;2024-02-14T06:04:03;101185.59;;;9.44;100.00
81658;BME280;71057;51.436;6.768;2024-02-14T06:06:28;101185.16;;;9.47;100.00
81658;BME280;71057;51.436;6.768;2024-02-14T06:08:54;101179.59;;;9.49;100.00
81658;BME280;71057;51.436;6.768;2024-02-14T06:11:20;101187.69;;;9.49;100.00
81658;BME280;71057;51.436;6.768;2024-02-14T06:13:47;101186.25;;;9.39;100.00
81658;BME280;71057;51.436;6.768;2024-02-14T06:16:13;101197.19;;;9.38;100.00
81658;BME280;71057;51.436;6.768;2024-02-14T06:18:38;101200.75;;;9.38;100.00
81658;BME280;71057;51.436;6.768;2024-02-14T06:21:05;101199.28;;;9.23;100.00
81658;BME280;71057;51.436;6.768;2024-02-14T06:23:30;101193.50;;;9.12;100.00
81658;BME280;71057;51.436;6.768;2024-02-14T06:25:56;101209.84;;;9.24;100.00
81658;BME280;71057;51.436;6.768;2024-02-14T06:28:21;101215.22;;;9.18;100.00
81658;BME280;71057;51.436;6.768;2024-02-14T06:30:46;101202.84;;;9.10;100.00
81658;BME280;71057;51.436;6.768;2024-02-14T06:33:11;101213.19;;;9.20;100.00
81658;BME280;71057;51.436;6.768;2024-02-14T06:35:37;101211.09;;;9.22;100.00
81658;BME280;71057;51.436;6.768;2024-02-14T06:38:02;101205.31;;;9.25;100.00
81658;BME280;71057;51.436;6.768;2024-02-14T06:40:27;101207.56;;;9.28;100.00
81658;BME280;71057;51.436;6.768;2024-02-14T06:42:54;101221.25;;;9.33;100.00
81658;BME280;71057;51.436;6.768;2024-02-14T06:45:20;101226.41;;;9.28;100.00
81658;BME280;71057;51.436;6.768;2024-02-14T06:47:45;101216.91;;;9.38;100.00
81658;BME280;71057;51.436;6.768;2024-02-14T06:50:10;101208.41;;;9.48;100.00
81658;BME280;71057;51.436;6.768;2024-02-14T06:52:35;101210.66;;;9.51;100.00
81658;BME280;71057;51.436;6.768;2024-02-14T06:55:01;101212.09;;;9.47;100.00
81658;BME280;71057;51.436;6.768;2024-02-14T06:57:29;101205.50;;;9.50;100.00
81658;BME280;71057;51.436;6.768;2024-02-14T06:59:54;101229.53;;;9.51;100.00
81658;BME280;71057;51.436;6.768;2024-02-14T07:02:19;101227.25;;;9.48;100.00
81658;BME280;71057;51.436;6.768;2024-02-14T07:04:46;101228.28;;;9.54;100.00
81658;BME280;71057;51.436;6.768;2024-02-14T07:07:11;101233.06;;;9.52;100.00
81658;BME280;71057;51.436;6.768;2024-02-14T07:09:36;101239.88;;;9.61;100.00
81658;BME280;71057;51.436;6.768;2024-02-14T07:12:04;101244.22;;;9.55;100.00
81658;BME280;71057;51.436;6.768;2024-02-14T07:14:29;101242.78;;;9.53;100.00
81658;BME280;71057;51.436;6.768;2024-02-14T07:16:54;101240.09;;;9.59;100.00
81658;BME280;71057;51.436;6.768;2024-02-14T07:19:20;101246.31;;;9.60;100.00
81658;BME280;71057;51.436;6.768;2024-02-14T07:21:45;101253.97;;;9.56;100.00
81658;BME280;71057;51.436;6.768;2024-02-14T07:24:10;101256.91;;;9.48;100.00
81658;BME280;71057;51.436;6.768;2024-02-14T07:26:35;101253.38;;;9.41;100.00
81658;BME280;71057;51.436;6.768;2024-02-14T07:29:01;101254.41;;;9.53;100.00
81658;BME280;71057;51.436;6.768;2024-02-14T07:31:29;101262.91;;;9.50;100.00
81658;BME280;71057;51.436;6.768;2024-02-14T07:33:56;101257.69;;;9.55;100.00
81658;BME280;71057;51.436;6.768;2024-02-14T07:36:21;101272.44;;;9.59;100.00
81658;BME280;71057;51.436;6.768;2024-02-14T07:38:46;101256.47;;;9.51;100.00
81658;BME280;71057;51.436;6.768;2024-02-14T07:41:12;101262.69;;;9.58;100.00
81658;BME280;71057;51.436;6.768;2024-02-14T07:43:37;101270.34;;;9.61;100.00
81658;BME280;71057;51.436;6.768;2024-02-14T07:46:02;101268.91;;;9.59;100.00
81658;BME280;71057;51.436;6.768;2024-02-14T07:48:27;101255.44;;;9.59;100.00
81658;BME280;71057;51.436;6.768;2024-02-14T07:50:53;101268.69;;;9.67;100.00
81658;BME280;71057;51.436;6.768;2024-02-14T07:53:18;101262.88;;;9.63;100.00
81658;BME280;71057;51.436;6.768;2024-02-14T07:55:43;101258.75;;;9.67;100.00
81658;BME280;71057;51.436;6.768;2024-02-14T07:58:09;101267.84;;;9.73;100.00
81658;BME280;71057;51.436;6.768;2024-02-14T08:00:34;101261.63;;;9.79;100.00
81658;BME280;71057;51.436;6.768;2024-02-14T08:02:59;101256.63;;;9.89;100.00
81658;BME280;71057;51.436;6.768;2024-02-14T08:05:28;101255.38;;;9.98;100.00
81658;BME280;71057;51.436;6.768;2024-02-14T08:07:54;101264.06;;;10.00;100.00
81658;BME280;71057;51.436;6.768;2024-02-14T08:10:19;101249.97;;;10.05;100.00
81658;BME280;71057;51.436;6.768;2024-02-14T08:12:45;101249.53;;;10.08;100.00
81658;BME280;71057;51.436;6.768;2024-02-14T08:15:10;101265.28;;;10.18;100.00
81658;BME280;71057;51.436;6.768;2024-02-14T08:17:35;101272.53;;;10.17;100.00
81658;BME280;71057;51.436;6.768;2024-02-14T08:20:01;101264.03;;;10.27;100.00
81658;BME280;71057;51.436;6.768;2024-02-14T08:22:29;101268.16;;;10.29;100.00
81658;BME280;71057;51.436;6.768;2024-02-14T08:24:54;101267.31;;;10.42;100.00
81658;BME280;71057;51.436;6.768;2024-02-14T08:27:20;101259.81;;;10.38;100.00
81658;BME280;71057;51.436;6.768;2024-02-14T08:29:47;101265.59;;;10.48;100.00
81658;BME280;71057;51.436;6.768;2024-02-14T08:32:12;101271.00;;;10.41;100.00
81658;BME280;71057;51.436;6.768;2024-02-14T08:34:40;101280.97;;;10.47;100.00
81658;BME280;71057;51.436;6.768;2024-02-14T08:37:06;101286.13;;;10.55;100.00
81658;BME280;71057;51.436;6.768;2024-02-14T08:39:36;101292.97;;;10.58;100.00
81658;BME280;71057;51.436;6.768;2024-02-14T08:42:01;101295.06;;;10.49;100.00
81658;BME280;71057;51.436;6.768;2024-02-14T08:44:32;101288.22;;;10.53;100.00
81658;BME280;71057;51.436;6.768;2024-02-14T08:46:57;101290.69;;;10.55;100.00
81658;BME280;71057;51.436;6.768;2024-02-14T08:49:23;101290.47;;;10.63;100.00
81658;BME280;71057;51.436;6.768;2024-02-14T08:51:48;101303.13;;;10.63;100.00
81658;BME280;71057;51.436;6.768;2024-02-14T08:54:16;101288.00;;;10.55;100.00
81658;BME280;71057;51.436;6.768;2024-02-14T08:56:41;101295.66;;;10.51;100.00
81658;BME280;71057;51.436;6.768;2024-02-14T08:59:06;101283.81;;;10.59;100.00
81658;BME280;71057;51.436;6.768;2024-02-14T09:01:32;101298.13;;;10.66;100.00
81658;BME280;71057;51.436;6.768;2024-02-14T09:03:58;101300.44;;;10.63;100.00
81658;BME280;71057;51.436;6.768;2024-02-14T09:06:24;101299.41;;;10.57;100.00
81658;BME280;71057;51.436;6.768;2024-02-14T09:08:49;101295.47;;;10.53;100.00
81658;BME280;71057;51.436;6.768;2024-02-14T09:11:18;101310.47;;;10.42;100.00
81658;BME280;71057;51.436;6.768;2024-02-14T09:13:43;101295.50;;;10.40;100.00
81658;BME280;71057;51.436;6.768;2024-02-14T09:16:09;101298.44;;;10.38;100.00
81658;BME280;71057;51.436;6.768;2024-02-14T09:18:39;101300.47;;;10.49;100.00
81658;BME280;71057;51.436;6.768;2024-02-14T09:21:04;101299.47;;;10.44;100.00
81658;BME280;71057;51.436;6.768;2024-02-14T09:23:30;101304.22;;;10.42;100.00
81658;BME280;71057;51.436;6.768;2024-02-14T09:25:56;101303.75;;;10.58;100.00
81658;BME280;71057;51.436;6.768;2024-02-14T09:28:22;101309.16;;;10.58;100.00
81658;BME280;71057;51.436;6.768;2024-02-14T09:30:48;101311.41;;;10.61;100.00
81658;BME280;71057;51.436;6.768;2024-02-14T09:33:13;101308.34;;;10.51;100.00
81658;BME280;71057;51.436;6.768;2024-02-14T09:35:39;101297.91;;;10.61;100.00
81658;BME280;71057;51.436;6.768;2024-02-14T09:38:09;101301.25;;;10.63;100.00
81658;BME280;71057;51.436;6.768;2024-02-14T09:40:34;101302.44;;;10.74;100.00
81658;BME280;71057;51.436;6.768;2024-02-14T09:43:03;101298.66;;;10.81;100.00
81658;BME280;71057;51.436;6.768;2024-02-14T09:45:30;101312.28;;;11.00;100.00
81658;BME280;71057;51.436;6.768;2024-02-14T09:47:58;101305.53;;;11.15;100.00
81658;BME280;71057;51.436;6.768;2024-02-14T09:50:24;101310.03;;;11.28;100.00
81658;BME280;71057;51.436;6.768;2024-02-14T09:52:51;101304.25;;;11.50;100.00
81658;BME280;71057;51.436;6.768;2024-02-14T09:55:23;101307.09;;;11.55;100.00
81658;BME280;71057;51.436;6.768;2024-02-14T09:57:49;101314.84;;;11.51;100.00
81658;BME280;71057;51.436;6.768;2024-02-14T10:00:15;101325.16;;;11.61;100.00
81658;BME280;71057;51.436;6.768;2024-02-14T10:02:41;101318.88;;;11.67;100.00
81658;BME280;71057;51.436;6.768;2024-02-14T10:05:07;101333.25;;;11.61;100.00
81658;BME280;71057;51.436;6.768;2024-02-14T10:07:43;101319.63;;;11.74;100.00
81658;BME280;71057;51.436;6.768;2024-02-14T10:10:09;101325.47;;;11.71;100.00
81658;BME280;71057;51.436;6.768;2024-02-14T10:12:35;101318.66;;;11.68;100.00
81658;BME280;71057;51.436;6.768;2024-02-14T10:15:00;101320.06;;;11.71;100.00
81658;BME280;71057;51.436;6.768;2024-02-14T10:17:29;101327.59;;;11.69;100.00
81658;BME280;71057;51.436;6.768;2024-02-14T10:20:02;101320.94;;;11.65;100.00
81658;BME280;71057;51.436;6.768;2024-02-14T10:22:38;101331.75;;;11.65;100.00
81658;BME280;71057;51.436;6.768;2024-02-14T10:25:04;101332.16;;;11.68;100.00
81658;BME280;71057;51.436;6.768;2024-02-14T10:27:37;101323.47;;;11.66;100.00
81658;BME280;71057;51.436;6.768;2024-02-14T10:30:12;101332.31;;;11.73;100.00
81658;BME280;71057;51.436;6.768;2024-02-14T10:32:39;101326.72;;;11.75;100.00
81658;BME280;71057;51.436;6.768;2024-02-14T10:35:06;101331.56;;;11.91;100.00
81658;BME280;71057;51.436;6.768;2024-02-14T10:37:36;101335.84;;;11.81;100.00
81658;BME280;71057;51.436;6.768;2024-02-14T10:40:02;101323.78;;;11.77;100.00
81658;BME280;71057;51.436;6.768;2024-02-14T10:42:30;101327.50;;;11.82;100.00
81658;BME280;71057;51.436;6.768;2024-02-14T10:44:55;101331.44;;;11.86;100.00
81658;BME280;71057;51.436;6.768;2024-02-14T10:47:24;101323.72;;;11.83;100.00
81658;BME280;71057;51.436;6.768;2024-02-14T10:49:50;101342.47;;;11.85;100.00
81658;BME280;71057;51.436;6.768;2024-02-14T10:52:17;101328.44;;;11.94;100.00
81658;BME280;71057;51.436;6.768;2024-02-14T10:54:52;101335.94;;;11.92;100.00
81658;BME280;71057;51.436;6.768;2024-02-14T10:57:24;101323.19;;;11.99;100.00
81658;BME280;71057;51.436;6.768;2024-02-14T10:59:49;101332.19;;;12.12;100.00
81658;BME280;71057;51.436;6.768;2024-02-14T11:02:15;101338.84;;;12.16;100.00
81658;BME280;71057;51.436;6.768;2024-02-14T11:04:41;101323.50;;;12.10;100.00
81658;BME280;71057;51.436;6.768;2024-02-14T11:07:10;101327.44;;;12.32;100.00
81658;BME280;71057;51.436;6.768;2024-02-14T11:09:36;101326.91;;;12.42;100.00
81658;BME280;71057;51.436;6.768;2024-02-14T11:12:01;101338.41;;;12.37;100.00
81658;BME280;71057;51.436;6.768;2024-02-14T11:14:31;101325.91;;;12.36;100.00
81658;BME280;71057;51.436;6.768;2024-02-14T11:16:57;101331.94;;;12.38;100.00
81658;BME280;71057;51.436;6.768;2024-02-14T11:19:33;101324.88;;;12.37;100.00
81658;BME280;71057;51.436;6.768;2024-02-14T11:22:10;101331.09;;;12.38;100.00
81658;BME280;71057;51.436;6.768;2024-02-14T11:24:38;101347.66;;;12.48;100.00
81658;BME280;71057;51.436;6.768;2024-02-14T11:27:09;101340.28;;;12.55;100.00
81658;BME280;71057;51.436;6.768;2024-02-14T11:29:35;101340.41;;;12.60;100.00
81658;BME280;71057;51.436;6.768;2024-02-14T11:32:01;101353.00;;;12.54;100.00
81658;BME280;71057;51.436;6.768;2024-02-14T11:34:28;101334.16;;;12.59;100.00
81658;BME280;71057;51.436;6.768;2024-02-14T11:36:57;101316.38;;;12.52;100.00
81658;BME280;71057;51.436;6.768;2024-02-14T11:39:22;101328.16;;;12.76;100.00
81658;BME280;71057;51.436;6.768;2024-02-14T11:41:47;101332.28;;;12.78;100.00
81658;BME280;71057;51.436;6.768;2024-02-14T11:44:13;101325.06;;;12.72;100.00
81658;BME280;71057;51.436;6.768;2024-02-14T11:46:38;101338.97;;;12.76;100.00
81658;BME280;71057;51.436;6.768;2024-02-14T11:49:05;101309.78;;;12.78;100.00
81658;BME280;71057;51.436;6.768;2024-02-14T11:51:33;101320.63;;;12.78;100.00
81658;BME280;71057;51.436;6.768;2024-02-14T11:53:59;101319.78;;;13.07;100.00
81658;BME280;71057;51.436;6.768;2024-02-14T11:56:39;101322.88;;;13.11;100.00
81658;BME280;71057;51.436;6.768;2024-02-14T11:59:07;101312.34;;;13.21;100.00
81658;BME280;71057;51.436;6.768;2024-02-14T12:01:36;101313.56;;;13.37;100.00
81658;BME280;71057;51.436;6.768;2024-02-14T12:04:04;101309.19;;;13.36;100.00
81658;BME280;71057;51.436;6.768;2024-02-14T12:09:15;101316.16;;;13.13;100.00
81658;BME280;71057;51.436;6.768;2024-02-14T12:11:43;101310.53;;;12.85;100.00
81658;BME280;71057;51.436;6.768;2024-02-14T12:14:15;101313.13;;;12.25;100.00
81658;BME280;71057;51.436;6.768;2024-02-14T12:16:40;101318.78;;;12.23;100.00
81658;BME280;71057;51.436;6.768;2024-02-14T12:19:07;101329.94;;;12.09;100.00
81658;BME280;71057;51.436;6.768;2024-02-14T12:21:37;101332.97;;;12.19;100.00
81658;BME280;71057;51.436;6.768;2024-02-14T12:24:07;101330.44;;;12.24;100.00
81658;BME280;71057;51.436;6.768;2024-02-14T12:26:33;101322.03;;;12.32;100.00
81658;BME280;71057;51.436;6.768;2024-02-14T12:29:01;101318.09;;;12.46;100.00
81658;BME280;71057;51.436;6.768;2024-02-14T12:31:27;101312.31;;;12.61;100.00
81658;BME280;71057;51.436;6.768;2024-02-14T12:33:52;101316.19;;;12.65;100.00
81658;BME280;71057;51.436;6.768;2024-02-14T12:36:20;101328.75;;;12.59;100.00
81658;BME280;71057;51.436;6.768;2024-02-14T12:38:45;101338.78;;;12.22;100.00
81658;BME280;71057;51.436;6.768;2024-02-14T12:41:11;101326.47;;;12.01;100.00
81658;BME280;71057;51.436;6.768;2024-02-14T12:43:36;101313.94;;;12.07;100.00
81658;BME280;71057;51.436;6.768;2024-02-14T12:46:01;101329.81;;;12.04;100.00
81658;BME280;71057;51.436;6.768;2024-02-14T12:48:29;101328.13;;;12.02;100.00
81658;BME280;71057;51.436;6.768;2024-02-14T12:50:55;101326.09;;;11.98;100.00
81658;BME280;71057;51.436;6.768;2024-02-14T12:53:21;101312.34;;;11.99;100.00
81658;BME280;71057;51.436;6.768;2024-02-14T12:55:46;101302.44;;;12.12;100.00
81658;BME280;71057;51.436;6.768;2024-02-14T12:58:12;101306.28;;;12.04;100.00